createdAt,value
2023-01-18T00:00:41.263Z,89.63
2023-01-18T00:03:13.274Z,89.72
2023-01-18T00:05:41.438Z,89.95
2023-01-18T00:08:09.921Z,90.22
2023-01-18T00:10:36.863Z,90.28
2023-01-18T00:13:04.122Z,90.43
2023-01-18T00:15:34.816Z,90.60
2023-01-18T00:18:01.992Z,90.37
2023-01-18T00:20:30.113Z,90.27
2023-01-18T00:22:59.198Z,90.67
2023-01-18T00:25:26.137Z,90.66
2023-01-18T00:27:54.961Z,90.97
2023-01-18T00:30:25.061Z,90.99
2023-01-18T00:32:59.186Z,91.00
2023-01-18T00:35:26.565Z,91.40
2023-01-18T00:37:54.096Z,91.42
2023-01-18T00:40:22.413Z,91.05
2023-01-18T00:43:07.578Z,91.34
2023-01-18T00:45:34.311Z,91.12
2023-01-18T00:48:02.770Z,91.18
2023-01-18T00:50:29.687Z,91.23
2023-01-18T00:52:58.608Z,91.37
2023-01-18T00:55:26.538Z,91.38
2023-01-18T00:57:53.187Z,92.05
2023-01-18T01:00:20.445Z,91.92
2023-01-18T01:02:47.093Z,91.98
2023-01-18T01:05:38.131Z,92.29
2023-01-18T01:08:06.075Z,92.70
2023-01-18T01:10:36.038Z,92.73
2023-01-18T01:13:21.168Z,92.88
2023-01-18T01:16:06.090Z,92.55
2023-01-18T01:18:51.385Z,92.26
2023-01-18T01:21:36.959Z,92.01
2023-01-18T01:24:22.177Z,91.99
2023-01-18T01:26:48.786Z,92.38
2023-01-18T01:29:16.034Z,92.89
2023-01-18T01:31:42.667Z,93.08
2023-01-18T01:34:09.902Z,93.17
2023-01-18T01:36:36.632Z,93.28
2023-01-18T01:39:03.428Z,93.41
2023-01-18T01:41:40.568Z,93.21
2023-01-18T01:44:20.132Z,93.17
2023-01-18T01:47:06.805Z,92.91
2023-01-18T01:49:35.032Z,93.21
2023-01-18T01:52:08.020Z,93.32
2023-01-18T01:54:47.688Z,93.14
2023-01-18T01:57:31.874Z,93.51
2023-01-18T02:00:08.203Z,94.00
2023-01-18T02:02:35.790Z,93.84
2023-01-18T02:05:05.486Z,93.43
2023-01-18T02:07:32.862Z,93.27
2023-01-18T02:10:00.936Z,93.37
2023-01-18T02:12:29.273Z,93.30
2023-01-18T02:14:57.971Z,93.69
2023-01-18T02:17:38.600Z,93.90
2023-01-18T02:20:24.865Z,93.85
2023-01-18T02:23:19.251Z,94.15
2023-01-18T02:25:51.652Z,94.14
2023-01-18T02:28:30.022Z,94.24
2023-01-18T02:31:18.385Z,94.07
2023-01-18T02:33:45.560Z,94.04
2023-01-18T02:36:31.861Z,93.87
2023-01-18T02:39:10.731Z,93.80
2023-01-18T02:42:07.205Z,93.94
2023-01-18T02:44:59.276Z,94.25
2023-01-18T02:47:27.760Z,94.28
2023-01-18T02:49:56.671Z,94.11
2023-01-18T02:52:53.638Z,94.16
2023-01-18T02:55:41.943Z,94.53
2023-01-18T02:58:33.962Z,94.82
2023-01-18T03:01:11.977Z,95.08
2023-01-18T03:03:42.493Z,94.71
2023-01-18T03:06:09.313Z,94.83
2023-01-18T03:08:40.632Z,95.10
2023-01-18T03:11:16.671Z,94.71
2023-01-18T03:13:43.232Z,94.99
2023-01-18T03:16:18.590Z,94.86
2023-01-18T03:19:35.581Z,94.90
2023-01-18T03:22:03.143Z,94.93
2023-01-18T03:24:31.296Z,94.75
2023-01-18T03:27:18.090Z,94.72
2023-01-18T03:30:05.482Z,94.63
2023-01-18T03:32:53.567Z,94.83
2023-01-18T03:35:26.881Z,94.97
2023-01-18T03:37:56.384Z,94.88
2023-01-18T03:40:26.555Z,94.60
2023-01-18T03:43:02.023Z,94.69
2023-01-18T03:45:42.357Z,94.74
2023-01-18T03:48:10.420Z,94.64
2023-01-18T03:50:53.129Z,94.75
2023-01-18T03:53:54.695Z,94.67
2023-01-18T03:56:24.100Z,94.84
2023-01-18T03:58:54.337Z,95.02
2023-01-18T04:01:21.684Z,95.34
2023-01-18T04:03:48.437Z,95.22
2023-01-18T04:06:17.282Z,95.22
2023-01-18T04:08:46.802Z,94.86
2023-01-18T04:11:13.902Z,94.83
2023-01-18T04:13:40.540Z,94.89
2023-01-18T04:16:07.491Z,95.39
2023-01-18T04:18:34.135Z,95.35
2023-01-18T04:21:04.045Z,95.52
2023-01-18T04:23:30.699Z,95.34
2023-01-18T04:26:11.969Z,95.21
2023-01-18T04:28:38.544Z,95.48
2023-01-18T04:31:05.596Z,95.48
2023-01-18T04:33:32.624Z,95.50
2023-01-18T04:35:59.274Z,95.29
2023-01-18T04:38:26.238Z,95.16
2023-01-18T04:40:54.400Z,95.22
2023-01-18T04:43:22.637Z,95.16
2023-01-18T04:45:59.127Z,95.15
2023-01-18T04:48:30.847Z,95.24
2023-01-18T04:50:57.481Z,95.05
2023-01-18T04:53:24.174Z,94.54
2023-01-18T04:55:51.348Z,94.41
2023-01-18T04:58:17.941Z,94.42
2023-01-18T05:00:44.794Z,94.56
2023-01-18T05:03:12.398Z,94.77
2023-01-18T05:05:39.214Z,94.74
2023-01-18T05:08:06.054Z,94.71
2023-01-18T05:10:33.731Z,94.63
2023-01-18T05:13:00.931Z,94.91
2023-01-18T05:15:27.891Z,95.08
2023-01-18T05:17:54.491Z,95.34
2023-01-18T05:20:21.060Z,95.44
2023-01-18T05:22:47.722Z,95.72
2023-01-18T05:25:14.513Z,95.68
2023-01-18T05:27:41.163Z,95.98
2023-01-18T05:30:09.778Z,95.98
2023-01-18T05:32:36.404Z,96.36
2023-01-18T05:35:05.113Z,97.18
2023-01-18T05:37:31.751Z,97.29
2023-01-18T05:39:59.378Z,97.70
2023-01-18T05:42:26.020Z,97.55
2023-01-18T05:44:52.742Z,97.41
2023-01-18T05:47:19.374Z,97.52
2023-01-18T05:49:45.972Z,97.64
2023-01-18T05:52:12.830Z,97.72
2023-01-18T05:54:39.536Z,97.47
2023-01-18T05:57:06.124Z,97.37
2023-01-18T05:59:32.737Z,97.65
2023-01-18T06:01:59.410Z,97.72
2023-01-18T06:04:26.139Z,97.51
2023-01-18T06:06:52.786Z,97.26
2023-01-18T06:09:19.385Z,97.20
2023-01-18T06:11:45.994Z,97.08
2023-01-18T06:14:12.790Z,97.08
2023-01-18T06:16:39.548Z,97.28
2023-01-18T06:19:06.140Z,97.47
2023-01-18T06:21:32.885Z,97.66
2023-01-18T06:23:59.543Z,97.54
2023-01-18T06:26:26.225Z,97.53
2023-01-18T06:28:53.625Z,97.79
2023-01-18T06:31:20.368Z,97.61
2023-01-18T06:33:47.113Z,97.50
2023-01-18T06:36:13.729Z,97.52
2023-01-18T06:38:41.418Z,97.56
2023-01-18T06:41:09.302Z,97.74
2023-01-18T06:43:35.957Z,97.71
2023-01-18T06:46:02.937Z,97.74
2023-01-18T06:48:29.930Z,97.35
2023-01-18T06:50:57.521Z,97.33
2023-01-18T06:53:24.610Z,97.30
2023-01-18T06:55:58.567Z,97.65
2023-01-18T06:58:26.574Z,97.46
2023-01-18T07:00:57.663Z,97.40
2023-01-18T07:03:25.611Z,97.51
2023-01-18T07:06:00.186Z,97.78
2023-01-18T07:08:28.033Z,98.04
2023-01-18T07:10:54.958Z,98.09
2023-01-18T07:13:22.256Z,98.23
2023-01-18T07:16:00.776Z,98.03
2023-01-18T07:18:29.626Z,97.97
2023-01-18T07:21:00.846Z,97.88
2023-01-18T07:23:28.711Z,98.30
2023-01-18T07:26:06.025Z,98.60
2023-01-18T07:28:33.516Z,98.33
2023-01-18T07:31:01.076Z,98.43
2023-01-18T07:33:28.637Z,98.07
2023-01-18T07:35:56.809Z,98.17
2023-01-18T07:38:24.106Z,98.34
2023-01-18T07:41:14.305Z,98.24
2023-01-18T07:43:42.789Z,98.20
2023-01-18T07:46:12.239Z,98.24
2023-01-18T07:48:39.186Z,98.02
2023-01-18T07:51:08.771Z,98.11
2023-01-18T07:53:37.265Z,98.00
2023-01-18T07:56:08.134Z,98.50
2023-01-18T07:58:36.384Z,98.61
2023-01-18T08:01:11.568Z,98.49
2023-01-18T08:03:41.398Z,98.54
2023-01-18T08:06:13.511Z,98.70
2023-01-18T08:08:40.627Z,98.87
2023-01-18T08:11:07.856Z,98.95
2023-01-18T08:13:34.548Z,98.83
2023-01-18T08:16:03.093Z,98.98
2023-01-18T08:18:29.993Z,98.71
2023-01-18T08:20:56.842Z,98.52
2023-01-18T08:23:23.777Z,98.62
2023-01-18T08:25:51.162Z,98.44
2023-01-18T08:28:18.793Z,97.77
2023-01-18T08:30:47.291Z,97.53
2023-01-18T08:33:14.775Z,97.56
2023-01-18T08:35:42.765Z,97.43
2023-01-18T08:38:09.860Z,97.82
2023-01-18T08:40:36.733Z,97.68
2023-01-18T08:43:06.686Z,98.14
2023-01-18T08:45:35.092Z,98.29
2023-01-18T08:48:04.387Z,97.80
2023-01-18T08:50:32.650Z,97.68
2023-01-18T08:53:00.591Z,96.98
2023-01-18T08:55:28.444Z,96.02
2023-01-18T08:57:57.657Z,95.48
2023-01-18T09:00:26.894Z,95.39
2023-01-18T09:02:53.580Z,95.46
2023-01-18T09:05:20.263Z,95.26
2023-01-18T09:07:47.495Z,95.25
2023-01-18T09:10:14.295Z,95.06
2023-01-18T09:12:41.076Z,95.17
2023-01-18T09:15:07.895Z,95.16
2023-01-18T09:17:34.431Z,95.09
2023-01-18T09:20:00.898Z,94.96
2023-01-18T09:22:27.416Z,94.86
2023-01-18T09:24:54.029Z,94.89
2023-01-18T09:27:20.583Z,94.76
2023-01-18T09:29:52.241Z,94.57
2023-01-18T09:32:20.227Z,94.51
2023-01-18T09:34:50.871Z,94.42
2023-01-18T09:37:19.233Z,94.79
2023-01-18T09:39:51.773Z,94.83
2023-01-18T09:42:29.898Z,94.75
2023-01-18T09:44:59.821Z,94.40
2023-01-18T09:47:39.498Z,94.09
2023-01-18T09:50:13.599Z,93.74
2023-01-18T09:52:52.246Z,93.78
2023-01-18T09:55:28.925Z,93.42
2023-01-18T09:58:16.808Z,93.28
2023-01-18T10:00:47.677Z,92.79
2023-01-18T10:03:26.315Z,92.71
2023-01-18T10:06:08.609Z,92.30
2023-01-18T10:08:49.972Z,92.10
2023-01-18T10:11:32.171Z,91.92
2023-01-18T10:13:58.704Z,91.82
2023-01-18T10:16:25.928Z,92.08
2023-01-18T10:18:55.680Z,91.87
2023-01-18T10:21:47.442Z,92.31
2023-01-18T10:24:32.950Z,92.23
2023-01-18T10:27:19.727Z,92.36
2023-01-18T10:30:00.629Z,92.83
2023-01-18T10:32:28.351Z,93.52
2023-01-18T10:34:55.333Z,93.71
2023-01-18T10:37:28.009Z,93.58
2023-01-18T10:40:02.219Z,93.88
2023-01-18T10:42:47.812Z,93.76
2023-01-18T10:45:22.236Z,93.94
2023-01-18T10:47:49.679Z,92.70
2023-01-18T10:50:33.441Z,91.63
2023-01-18T10:53:19.269Z,90.92
2023-01-18T10:56:04.656Z,89.99
2023-01-18T10:58:33.401Z,89.27
2023-01-18T11:01:00.985Z,88.62
2023-01-18T11:03:28.593Z,88.44
2023-01-18T11:06:04.383Z,88.60
2023-01-18T11:08:35.331Z,88.53
2023-01-18T11:11:03.843Z,88.22
2023-01-18T11:13:31.816Z,87.71
2023-01-18T11:16:06.329Z,86.52
2023-01-18T11:18:33.600Z,85.94
2023-01-18T11:21:00.279Z,84.25
2023-01-18T11:23:36.414Z,83.29
2023-01-18T11:26:12.774Z,81.66
2023-01-18T11:28:39.666Z,79.97
2023-01-18T11:31:16.086Z,79.38
2023-01-18T11:33:55.984Z,78.89
2023-01-18T11:36:41.163Z,78.25
2023-01-18T11:39:23.607Z,77.36
2023-01-18T11:41:52.872Z,76.79
2023-01-18T11:44:25.634Z,76.01
2023-01-18T11:46:58.122Z,75.93
2023-01-18T11:49:29.349Z,75.96
2023-01-18T11:52:03.540Z,75.40
2023-01-18T11:54:43.761Z,73.49
2023-01-18T11:57:12.428Z,72.29
2023-01-18T11:59:43.562Z,100.00
2023-01-18T12:02:10.213Z,100.00
2023-01-18T12:04:52.714Z,100.00
2023-01-18T12:07:25.435Z,100.00
2023-01-18T12:09:54.140Z,100.00
2023-01-18T12:12:45.138Z,100.00
2023-01-18T12:15:23.613Z,100.00
2023-01-18T12:18:13.928Z,100.00
2023-01-18T12:21:03.800Z,100.00
2023-01-18T12:23:45.754Z,100.00
2023-01-18T12:26:18.217Z,100.00
2023-01-18T12:28:44.716Z,100.00
2023-01-18T12:31:14.369Z,100.00
2023-01-18T12:34:01.449Z,100.00
2023-01-18T12:36:34.096Z,100.00
2023-01-18T12:39:07.219Z,100.00
2023-01-18T12:41:39.792Z,100.00
2023-01-18T12:44:12.889Z,100.00
2023-01-18T12:46:42.659Z,100.00
2023-01-18T12:49:19.122Z,100.00
2023-01-18T12:51:48.382Z,100.00
2023-01-18T12:54:35.908Z,100.00
2023-01-18T12:57:04.323Z,100.00
2023-01-18T13:00:09.340Z,100.00
2023-01-18T13:02:40.746Z,100.00
2023-01-18T13:05:14.530Z,100.00
2023-01-18T13:07:44.677Z,100.00
2023-01-18T13:10:20.203Z,100.00
2023-01-18T13:12:48.617Z,100.00
2023-01-18T13:15:24.451Z,100.00
2023-01-18T13:17:51.174Z,100.00
2023-01-18T13:20:19.745Z,100.00
2023-01-18T13:22:58.445Z,100.00
2023-01-18T13:25:43.691Z,100.00
2023-01-18T13:28:18.156Z,100.00
2023-01-18T13:30:50.567Z,71.82
2023-01-18T13:33:22.346Z,72.55
2023-01-18T13:35:51.414Z,71.60
2023-01-18T13:38:22.275Z,71.94
2023-01-18T13:40:54.814Z,72.59
2023-01-18T13:43:36.758Z,73.54
2023-01-18T13:46:03.386Z,73.43
2023-01-18T13:48:36.393Z,73.80
2023-01-18T13:51:02.912Z,74.23
2023-01-18T13:53:31.675Z,74.56
2023-01-18T13:56:05.026Z,75.13
2023-01-18T13:58:33.113Z,75.05
2023-01-18T14:01:03.700Z,75.13
2023-01-18T14:03:33.542Z,75.77
2023-01-18T14:06:05.923Z,76.13
2023-01-18T14:08:34.380Z,76.26
2023-01-18T14:11:05.845Z,75.79
2023-01-18T14:13:44.734Z,75.21
2023-01-18T14:16:25.656Z,74.77
2023-01-18T14:18:56.919Z,74.55
2023-01-18T14:21:26.252Z,74.17
2023-01-18T14:24:02.017Z,74.65
2023-01-18T14:26:30.935Z,75.00
2023-01-18T14:28:59.536Z,74.90
2023-01-18T14:31:35.480Z,73.55
2023-01-18T14:34:20.851Z,72.07
2023-01-18T14:36:47.333Z,71.67
2023-01-18T14:39:14.922Z,71.73
2023-01-18T14:41:45.901Z,72.41
2023-01-18T14:44:16.866Z,72.58
2023-01-18T14:46:49.937Z,72.96
2023-01-18T14:49:20.730Z,73.60
2023-01-18T14:51:51.946Z,74.34
2023-01-18T14:54:18.835Z,74.75
2023-01-18T14:56:45.692Z,75.45
2023-01-18T14:59:22.750Z,75.79
2023-01-18T15:02:15.293Z,76.49
2023-01-18T15:04:46.856Z,76.92
2023-01-18T15:07:18.622Z,76.96
2023-01-18T15:09:48.347Z,77.59
2023-01-18T15:12:29.472Z,78.38
2023-01-18T15:18:10.661Z,80.04
2023-01-18T15:20:48.538Z,80.52
2023-01-18T15:23:15.219Z,79.97
2023-01-18T15:25:41.725Z,80.09
2023-01-18T15:28:24.541Z,80.14
2023-01-18T15:30:54.715Z,80.32
2023-01-18T15:33:22.495Z,80.49
2023-01-18T15:36:00.743Z,81.13
2023-01-18T15:38:27.705Z,81.52
2023-01-18T15:41:04.681Z,82.00
2023-01-18T15:43:33.969Z,82.23
2023-01-18T15:46:01.357Z,83.11
2023-01-18T15:48:31.014Z,83.52
2023-01-18T15:51:04.310Z,83.31
2023-01-18T15:53:33.087Z,83.66
2023-01-18T15:56:05.251Z,83.63
2023-01-18T15:58:41.023Z,84.17
2023-01-18T16:01:16.549Z,84.50
2023-01-18T16:03:46.777Z,84.85
2023-01-18T16:06:16.920Z,84.87
2023-01-18T16:09:01.731Z,85.21
2023-01-18T16:11:38.945Z,85.46
2023-01-18T16:14:16.932Z,85.46
2023-01-18T16:16:43.969Z,85.33
2023-01-18T16:19:21.355Z,85.72
2023-01-18T16:22:07.073Z,85.99
2023-01-18T16:24:46.152Z,85.91
2023-01-18T16:27:23.047Z,86.50
2023-01-18T16:29:52.932Z,86.59
2023-01-18T16:32:28.080Z,86.92
2023-01-18T16:35:00.912Z,87.21
2023-01-18T16:37:27.891Z,86.77
2023-01-18T16:39:55.428Z,86.99
2023-01-18T16:42:29.622Z,87.45
2023-01-18T16:44:59.865Z,87.46
2023-01-18T16:47:26.537Z,87.58
2023-01-18T16:49:53.227Z,87.49
2023-01-18T16:52:19.895Z,88.04
2023-01-18T16:54:46.671Z,88.30
2023-01-18T16:57:23.861Z,88.21
2023-01-18T16:59:50.959Z,88.18
2023-01-18T17:02:17.704Z,88.03
2023-01-18T17:04:46.635Z,88.09
2023-01-18T17:07:13.869Z,87.96
2023-01-18T17:09:48.553Z,88.27
2023-01-18T17:12:16.203Z,88.74
2023-01-18T17:14:42.963Z,88.99
2023-01-18T17:17:11.083Z,89.05
2023-01-18T17:19:38.161Z,89.45
2023-01-18T17:22:06.297Z,89.63
2023-01-18T17:24:33.044Z,89.95
2023-01-18T17:26:59.699Z,89.74
2023-01-18T17:29:26.324Z,89.84
2023-01-18T17:31:53.410Z,89.61
2023-01-18T17:34:29.531Z,89.58
2023-01-18T17:36:58.401Z,89.77
2023-01-18T17:39:36.908Z,89.72
2023-01-18T17:42:16.448Z,89.60
2023-01-18T17:44:45.714Z,89.54
2023-01-18T17:47:13.039Z,89.10
2023-01-18T17:49:39.707Z,89.14
2023-01-18T17:52:06.368Z,89.08
2023-01-18T17:54:34.902Z,89.16
2023-01-18T17:57:01.707Z,89.00
2023-01-18T17:59:28.417Z,89.07
2023-01-18T18:01:55.216Z,89.36
2023-01-18T18:04:21.871Z,89.20
2023-01-18T18:06:54.270Z,89.44
2023-01-18T18:09:21.426Z,89.46
2023-01-18T18:14:29.050Z,89.17
2023-01-18T18:16:55.696Z,89.25
2023-01-18T18:19:33.936Z,89.37
2023-01-18T18:22:01.241Z,89.24
2023-01-18T18:24:27.996Z,89.39
2023-01-18T18:26:54.640Z,89.48
2023-01-18T18:29:21.358Z,89.49
2023-01-18T18:31:48.028Z,89.53
2023-01-18T18:34:14.684Z,89.57
2023-01-18T18:36:41.395Z,89.55
2023-01-18T18:39:08.955Z,89.65
2023-01-18T18:41:35.799Z,89.81
2023-01-18T18:44:02.952Z,90.38
2023-01-18T18:46:29.798Z,90.42
2023-01-18T18:48:56.673Z,90.64
2023-01-18T18:51:26.508Z,91.43
2023-01-18T18:53:53.365Z,91.28
2023-01-18T18:56:20.779Z,90.74
2023-01-18T18:58:51.204Z,91.23
2023-01-18T19:01:23.652Z,91.37
2023-01-18T19:03:51.982Z,92.07
2023-01-18T19:06:20.550Z,92.07
2023-01-18T19:08:47.575Z,91.77
2023-01-18T19:11:15.685Z,91.83
2023-01-18T19:13:43.388Z,91.87
2023-01-18T19:16:10.583Z,92.92
2023-01-18T19:18:37.343Z,93.27
2023-01-18T19:21:04.772Z,92.88
2023-01-18T19:23:31.618Z,93.17
2023-01-18T19:25:58.894Z,93.64
2023-01-18T19:28:25.581Z,93.49
2023-01-18T19:30:52.221Z,93.23
2023-01-18T19:33:18.807Z,93.12
2023-01-18T19:35:46.119Z,93.39
2023-01-18T19:38:13.589Z,93.45
2023-01-18T19:40:40.198Z,93.44
2023-01-18T19:43:09.323Z,93.86
2023-01-18T19:45:37.617Z,94.14
2023-01-18T19:48:05.225Z,94.19
2023-01-18T19:50:32.113Z,94.54
2023-01-18T19:52:59.737Z,94.79
2023-01-18T19:55:26.594Z,94.98
2023-01-18T19:57:55.924Z,95.18
2023-01-18T20:00:22.907Z,94.95
2023-01-18T20:02:49.635Z,94.70
2023-01-18T20:05:16.790Z,94.20
2023-01-18T20:07:43.564Z,94.08
2023-01-18T20:10:10.912Z,94.08
2023-01-18T20:12:38.448Z,93.98
2023-01-18T20:15:06.296Z,93.79
2023-01-18T20:17:33.179Z,93.53
2023-01-18T20:19:59.853Z,93.71
2023-01-18T20:22:26.569Z,93.55
2023-01-18T20:24:53.565Z,93.37
2023-01-18T20:27:23.071Z,93.59
2023-01-18T20:29:53.337Z,94.02
2023-01-18T20:32:19.991Z,94.38
2023-01-18T20:34:47.442Z,95.13
2023-01-18T20:37:15.477Z,95.69
2023-01-18T20:39:42.605Z,96.25
2023-01-18T20:42:09.437Z,96.84
2023-01-18T20:44:36.133Z,96.89
2023-01-18T20:47:03.241Z,97.21
2023-01-18T20:49:37.768Z,97.37
2023-01-18T20:52:06.868Z,97.49
2023-01-18T20:54:35.679Z,97.28
2023-01-18T20:57:03.473Z,97.28
2023-01-18T20:59:30.159Z,97.31
2023-01-18T21:01:57.028Z,97.02
2023-01-18T21:04:24.814Z,96.69
2023-01-18T21:06:51.440Z,96.54
2023-01-18T21:09:18.220Z,96.49
2023-01-18T21:11:45.011Z,96.48
2023-01-18T21:14:12.793Z,96.51
2023-01-18T21:16:39.436Z,96.69
2023-01-18T21:19:06.136Z,96.72
2023-01-18T21:21:32.872Z,96.83
2023-01-18T21:24:00.153Z,97.01
2023-01-18T21:26:27.087Z,97.01
2023-01-18T21:28:54.232Z,97.17
2023-01-18T21:31:21.639Z,97.65
2023-01-18T21:33:48.306Z,97.78
2023-01-18T21:36:20.350Z,97.47
2023-01-18T21:38:47.271Z,97.58
2023-01-18T21:41:32.537Z,97.58
2023-01-18T21:44:21.097Z,97.33
2023-01-18T21:46:49.335Z,97.15
2023-01-18T21:52:39.833Z,96.96
2023-01-18T21:55:06.845Z,96.88
2023-01-18T21:57:33.430Z,96.38
2023-01-18T22:00:00.036Z,96.23
2023-01-18T22:02:26.737Z,96.53
2023-01-18T22:05:00.198Z,97.00
2023-01-18T22:07:28.150Z,97.29
2023-01-18T22:10:04.163Z,97.57
2023-01-18T22:12:33.432Z,97.51
2023-01-18T22:15:02.141Z,97.44
2023-01-18T22:17:29.158Z,97.78
2023-01-18T22:19:58.228Z,97.73
2023-01-18T22:22:24.982Z,97.79
2023-01-18T22:24:51.888Z,97.96
2023-01-18T22:27:18.517Z,98.32
2023-01-18T22:29:45.426Z,98.46
2023-01-18T22:32:12.165Z,98.53
2023-01-18T22:34:38.838Z,98.75
2023-01-18T22:37:05.830Z,99.03
2023-01-18T22:39:32.472Z,99.14
2023-01-18T22:41:59.157Z,99.37
2023-01-18T22:44:25.845Z,99.46
2023-01-18T22:46:52.484Z,99.69
2023-01-18T22:49:19.194Z,99.78
2023-01-18T22:51:45.861Z,99.92
2023-01-18T22:54:14.914Z,100.00
2023-01-18T22:56:41.617Z,100.00
2023-01-18T22:59:08.788Z,100.00
2023-01-18T23:01:35.532Z,100.00
2023-01-18T23:04:03.918Z,100.00
2023-01-18T23:06:48.002Z,100.00
2023-01-18T23:09:16.265Z,100.00
2023-01-18T23:11:44.895Z,100.00
2023-01-18T23:14:30.511Z,100.00
2023-01-18T23:17:15.379Z,100.00
2023-01-18T23:19:42.016Z,100.00
2023-01-18T23:22:08.638Z,99.85
2023-01-18T23:24:36.640Z,100.00
2023-01-18T23:27:05.556Z,100.00
2023-01-18T23:29:32.229Z,100.00
2023-01-18T23:31:59.063Z,100.00
2023-01-18T23:34:26.051Z,100.00
2023-01-18T23:36:53.100Z,100.00
2023-01-18T23:39:38.773Z,100.00
2023-01-18T23:42:24.072Z,100.00
2023-01-18T23:45:09.250Z,100.00
2023-01-18T23:47:54.636Z,100.00
2023-01-18T23:50:40.088Z,100.00
2023-01-18T23:53:30.501Z,100.00
2023-01-18T23:55:57.683Z,100.00
2023-01-18T23:58:27.390Z,100.00
